Time;durP1;ratioP1;P1;durP2;ratioP2;P2;SDS_P1;SDS_P2;PMS_P1;PMS_P2;Temp;Humidity;BMP_temperature;BMP_pressure;BME280_temperature;BME280_humidity;BME280_pressure;Samples;Min_cycle;Max_cycle;Signal;HPM_P1;HPM_P2
2022/03/31 00:00:35;;;;;;;3.60;0.93;;;;;;;;;;5051695;28;20048;-64
2022/03/31 00:03:03;;;;;;;2.92;1.23;;;;;;;;;;5059629;28;20048;-65
2022/03/31 00:05:29;;;;;;;3.70;0.90;;;;;;;;;;5064716;28;20044;-63
2022/03/31 00:07:59;;;;;;;2.47;1.00;;;;;;;;;;5064671;28;20036;-64
2022/03/31 00:10:28;;;;;;;4.28;1.48;;;;;;;;;;5059561;28;20090;-64
2022/03/31 00:12:55;;;;;;;7.15;2.35;;;;;;;;;;5050645;28;20043;-64
2022/03/31 00:15:22;;;;;;;4.57;1.75;;;;;;;;;;5056446;28;20067;-63
2022/03/31 00:17:48;;;;;;;2.85;1.83;;;;;;;;;;5059031;28;20738;-64
2022/03/31 00:20:14;;;;;;;5.20;2.55;;;;;;;;;;5053781;28;20044;-64
2022/03/31 00:22:41;;;;;;;4.28;1.65;;;;;;;;;;5061079;28;20127;-64
2022/03/31 00:25:08;;;;;;;3.95;2.08;;;;;;;;;;5056029;28;20094;-64
2022/03/31 00:27:37;;;;;;;3.90;2.45;;;;;;;;;;5058642;28;20430;-65
2022/03/31 00:30:03;;;;;;;7.40;2.60;;;;;;;;;;5063587;28;20037;-64
2022/03/31 00:32:31;;;;;;;3.05;2.15;;;;;;;;;;5054234;28;20479;-64
2022/03/31 00:34:57;;;;;;;4.53;2.70;;;;;;;;;;5064039;28;20032;-64
2022/03/31 00:37:23;;;;;;;5.60;2.60;;;;;;;;;;5056657;28;20040;-65
2022/03/31 00:39:49;;;;;;;4.82;2.63;;;;;;;;;;5054363;28;20098;-64
2022/03/31 00:42:16;;;;;;;5.40;2.70;;;;;;;;;;5055274;28;20041;-64
2022/03/31 00:44:43;;;;;;;5.70;2.72;;;;;;;;;;5052252;28;20060;-63
2022/03/31 00:47:09;;;;;;;5.32;3.58;;;;;;;;;;5055868;28;20060;-65
2022/03/31 00:49:35;;;;;;;6.50;3.30;;;;;;;;;;5076900;28;20434;-64
2022/03/31 00:52:01;;;;;;;7.18;4.13;;;;;;;;;;5042823;28;20041;-65
2022/03/31 00:54:28;;;;;;;4.38;3.40;;;;;;;;;;5053204;28;20360;-65
2022/03/31 00:56:55;;;;;;;6.30;3.30;;;;;;;;;;5042828;28;20036;-65
2022/03/31 00:59:21;;;;;;;6.80;4.22;;;;;;;;;;5057455;28;20043;-64
2022/03/31 01:01:48;;;;;;;6.57;4.20;;;;;;;;;;5059654;28;20891;-65
2022/03/31 01:04:14;;;;;;;3.65;3.05;;;;;;;;;;5054251;28;20044;-65
2022/03/31 01:06:43;;;;;;;6.53;4.78;;;;;;;;;;5056424;28;20056;-65
2022/03/31 01:09:10;;;;;;;7.60;5.22;;;;;;;;;;5044685;28;20083;-64
2022/03/31 01:11:36;;;;;;;6.25;4.60;;;;;;;;;;5061769;28;20109;-64
2022/03/31 01:14:02;;;;;;;6.68;5.43;;;;;;;;;;5060694;28;20162;-64
2022/03/31 01:16:33;;;;;;;5.03;3.97;;;;;;;;;;5058788;28;20101;-64
2022/03/31 01:19:03;;;;;;;5.90;3.97;;;;;;;;;;5055956;28;20044;-64
2022/03/31 01:21:29;;;;;;;8.20;5.72;;;;;;;;;;5052706;28;20454;-65
2022/03/31 01:23:56;;;;;;;8.20;5.80;;;;;;;;;;5047516;28;20075;-64
2022/03/31 01:26:22;;;;;;;8.18;5.80;;;;;;;;;;5057497;28;20083;-64
2022/03/31 01:28:50;;;;;;;7.68;5.20;;;;;;;;;;5058860;28;20269;-64
2022/03/31 01:31:16;;;;;;;9.75;6.38;;;;;;;;;;5058842;28;20071;-65
2022/03/31 01:33:45;;;;;;;7.22;5.95;;;;;;;;;;5054699;28;20032;-65
2022/03/31 01:36:11;;;;;;;6.93;6.22;;;;;;;;;;5055159;28;20036;-64
2022/03/31 01:38:38;;;;;;;6.97;5.95;;;;;;;;;;5058690;28;20124;-64
2022/03/31 01:41:05;;;;;;;7.82;6.20;;;;;;;;;;5056189;28;20041;-66
2022/03/31 01:43:31;;;;;;;7.28;6.57;;;;;;;;;;5049480;28;20635;-64
2022/03/31 01:45:57;;;;;;;7.80;6.93;;;;;;;;;;5041552;28;20234;-65
2022/03/31 01:48:23;;;;;;;6.38;5.78;;;;;;;;;;5055796;28;20498;-64
2022/03/31 01:50:50;;;;;;;7.00;6.30;;;;;;;;;;5059951;28;20072;-64
2022/03/31 01:53:18;;;;;;;7.38;6.68;;;;;;;;;;5055134;28;20049;-66
2022/03/31 01:55:44;;;;;;;8.20;5.18;;;;;;;;;;5054399;28;20041;-64
2022/03/31 01:58:10;;;;;;;6.07;4.05;;;;;;;;;;5055365;28;20033;-65
2022/03/31 02:00:37;;;;;;;6.93;4.20;;;;;;;;;;5039028;28;20040;-64
2022/03/31 02:03:03;;;;;;;5.63;5.07;;;;;;;;;;5062635;28;20045;-64
2022/03/31 02:05:29;;;;;;;5.95;4.40;;;;;;;;;;5065648;28;20131;-63
2022/03/31 02:07:56;;;;;;;7.03;5.97;;;;;;;;;;5043819;28;20553;-64
2022/03/31 02:10:25;;;;;;;6.13;5.05;;;;;;;;;;5061351;28;20041;-63
2022/03/31 02:12:51;;;;;;;4.28;3.88;;;;;;;;;;5065696;28;20041;-65
2022/03/31 02:15:20;;;;;;;7.22;6.53;;;;;;;;;;5058123;28;20694;-64
2022/03/31 02:17:46;;;;;;;7.63;6.32;;;;;;;;;;5060241;28;20686;-63
2022/03/31 02:20:13;;;;;;;7.00;6.40;;;;;;;;;;5059750;28;20037;-64
2022/03/31 02:22:39;;;;;;;6.35;5.68;;;;;;;;;;5055358;28;20044;-64
2022/03/31 02:25:08;;;;;;;8.07;6.43;;;;;;;;;;5060672;28;20064;-64
2022/03/31 02:27:35;;;;;;;4.35;3.97;;;;;;;;;;5052944;28;20525;-66
2022/03/31 02:30:01;;;;;;;6.10;5.57;;;;;;;;;;5062922;28;20106;-65
2022/03/31 02:32:27;;;;;;;6.38;5.03;;;;;;;;;;5061313;28;20075;-65
2022/03/31 02:34:53;;;;;;;7.38;6.43;;;;;;;;;;5064701;28;20517;-65
2022/03/31 02:37:20;;;;;;;7.43;6.72;;;;;;;;;;5054234;28;20152;-64
2022/03/31 02:39:46;;;;;;;7.70;7.05;;;;;;;;;;5057142;28;20037;-64
2022/03/31 02:42:12;;;;;;;5.10;4.60;;;;;;;;;;5061305;28;20106;-65
2022/03/31 02:44:38;;;;;;;5.53;5.03;;;;;;;;;;5058203;28;20064;-63
2022/03/31 02:47:05;;;;;;;8.10;6.78;;;;;;;;;;5049981;28;20060;-65
2022/03/31 02:49:32;;;;;;;4.32;3.92;;;;;;;;;;5063129;28;20072;-64
2022/03/31 02:51:58;;;;;;;6.97;6.38;;;;;;;;;;5032425;28;20053;-64
2022/03/31 02:57:09;;;;;;;5.47;5.07;;;;;;;;;;5058925;28;20041;-65
2022/03/31 02:59:35;;;;;;;8.23;7.45;;;;;;;;;;5059950;28;20174;-64
2022/03/31 03:02:01;;;;;;;10.07;9.18;;;;;;;;;;5052419;28;20037;-64
2022/03/31 03:04:27;;;;;;;8.95;8.15;;;;;;;;;;5055309;28;20094;-64
2022/03/31 03:06:53;;;;;;;10.02;9.05;;;;;;;;;;5061899;28;20032;-66
2022/03/31 03:09:20;;;;;;;9.57;8.57;;;;;;;;;;5050810;28;20119;-64
2022/03/31 03:11:46;;;;;;;11.48;10.38;;;;;;;;;;5041207;28;20044;-64
2022/03/31 03:14:13;;;;;;;11.43;10.07;;;;;;;;;;5051902;28;20041;-65
2022/03/31 03:16:40;;;;;;;12.43;11.32;;;;;;;;;;5062229;28;20044;-64
2022/03/31 03:19:06;;;;;;;14.10;11.15;;;;;;;;;;5044688;28;20044;-64
2022/03/31 03:21:32;;;;;;;11.50;10.13;;;;;;;;;;5062097;28;20147;-65
2022/03/31 03:23:59;;;;;;;10.32;9.32;;;;;;;;;;5061952;28;20044;-64
2022/03/31 03:26:25;;;;;;;6.80;6.20;;;;;;;;;;5033937;28;20127;-63
2022/03/31 03:28:51;;;;;;;7.15;6.50;;;;;;;;;;5068204;28;20101;-64
2022/03/31 03:31:17;;;;;;;7.75;6.95;;;;;;;;;;5057078;28;20464;-65
2022/03/31 03:33:43;;;;;;;8.05;7.22;;;;;;;;;;5041194;28;20099;-66
2022/03/31 03:36:12;;;;;;;7.85;7.13;;;;;;;;;;5044103;28;20052;-65
2022/03/31 03:38:39;;;;;;;10.25;9.35;;;;;;;;;;5064796;28;20382;-65
2022/03/31 03:41:06;;;;;;;5.65;5.15;;;;;;;;;;5059646;28;20044;-65
2022/03/31 03:43:32;;;;;;;6.30;5.72;;;;;;;;;;5059518;28;20052;-64
2022/03/31 03:45:58;;;;;;;3.95;3.65;;;;;;;;;;5057366;28;20098;-65
2022/03/31 03:48:24;;;;;;;5.75;5.15;;;;;;;;;;5059742;28;20135;-64
2022/03/31 03:50:50;;;;;;;3.28;2.05;;;;;;;;;;5059999;28;20049;-64
2022/03/31 03:53:16;;;;;;;4.20;3.80;;;;;;;;;;5057544;28;20036;-65
2022/03/31 03:55:42;;;;;;;5.70;3.80;;;;;;;;;;5071723;28;20044;-64
2022/03/31 03:58:08;;;;;;;2.80;2.60;;;;;;;;;;5058219;28;20055;-64
2022/03/31 04:00:35;;;;;;;3.67;3.33;;;;;;;;;;5061868;28;20032;-64
2022/03/31 04:03:01;;;;;;;5.18;4.60;;;;;;;;;;5051975;28;20113;-65
2022/03/31 04:05:27;;;;;;;4.45;4.05;;;;;;;;;;5057074;28;20494;-64
2022/03/31 04:07:53;;;;;;;5.45;3.83;;;;;;;;;;5051989;28;20052;-64
2022/03/31 04:10:19;;;;;;;3.92;3.28;;;;;;;;;;5056148;28;20076;-64
2022/03/31 04:12:45;;;;;;;5.43;4.55;;;;;;;;;;5060484;28;20028;-64
2022/03/31 04:15:13;;;;;;;2.75;2.55;;;;;;;;;;5058873;28;20514;-64
2022/03/31 04:17:40;;;;;;;5.93;5.32;;;;;;;;;;5077877;28;20067;-64
2022/03/31 04:20:07;;;;;;;4.05;3.72;;;;;;;;;;5055389;28;20043;-65
2022/03/31 04:22:33;;;;;;;5.70;5.10;;;;;;;;;;5060562;28;20043;-64
2022/03/31 04:25:00;;;;;;;3.05;2.75;;;;;;;;;;5057911;28;20043;-64
2022/03/31 04:27:26;;;;;;;4.60;4.20;;;;;;;;;;5036633;28;20047;-64
2022/03/31 04:29:52;;;;;;;4.97;4.55;;;;;;;;;;5051434;28;20033;-64
2022/03/31 04:32:18;;;;;;;7.22;6.68;;;;;;;;;;5060981;28;20483;-65
2022/03/31 04:34:44;;;;;;;3.95;3.65;;;;;;;;;;5055818;28;20048;-64
2022/03/31 04:37:10;;;;;;;9.05;8.35;;;;;;;;;;5054087;28;20078;-64
2022/03/31 04:39:36;;;;;;;6.13;5.63;;;;;;;;;;5058051;28;20036;-64
2022/03/31 04:42:02;;;;;;;4.55;4.15;;;;;;;;;;5030382;28;20094;-64
2022/03/31 04:44:29;;;;;;;6.10;5.60;;;;;;;;;;5057109;28;20052;-64
2022/03/31 04:46:55;;;;;;;4.18;3.88;;;;;;;;;;5054596;28;20059;-64
2022/03/31 04:49:21;;;;;;;6.57;6.07;;;;;;;;;;5053901;28;20593;-64
2022/03/31 04:51:47;;;;;;;8.20;7.50;;;;;;;;;;5043534;28;20042;-64
2022/03/31 04:54:13;;;;;;;8.68;7.95;;;;;;;;;;5055525;28;20127;-64
2022/03/31 04:56:39;;;;;;;6.18;5.68;;;;;;;;;;5074484;28;20364;-64
2022/03/31 04:59:05;;;;;;;8.25;7.60;;;;;;;;;;5057973;28;20047;-65
2022/03/31 05:01:32;;;;;;;9.57;8.77;;;;;;;;;;5059915;28;20047;-64
2022/03/31 05:03:58;;;;;;;12.07;11.07;;;;;;;;;;5053318;28;20666;-64
2022/03/31 05:06:24;;;;;;;10.98;10.07;;;;;;;;;;5059587;28;20085;-64
2022/03/31 05:08:50;;;;;;;9.82;9.02;;;;;;;;;;5045869;28;20044;-65
2022/03/31 05:11:17;;;;;;;8.95;8.15;;;;;;;;;;5061429;28;20041;-64
2022/03/31 05:13:43;;;;;;;8.00;7.35;;;;;;;;;;5045445;28;20041;-65
2022/03/31 05:16:09;;;;;;;8.55;7.85;;;;;;;;;;5055996;28;20431;-62
2022/03/31 05:18:35;;;;;;;8.35;7.55;;;;;;;;;;5077156;28;20117;-64
2022/03/31 05:21:01;;;;;;;7.72;7.10;;;;;;;;;;5039352;28;20475;-65
2022/03/31 05:23:27;;;;;;;8.90;8.10;;;;;;;;;;5051613;28;20530;-64
2022/03/31 05:25:53;;;;;;;4.85;4.45;;;;;;;;;;5056079;28;20040;-65
2022/03/31 05:28:20;;;;;;;7.40;6.78;;;;;;;;;;5042075;28;20060;-64
2022/03/31 05:30:46;;;;;;;12.52;11.38;;;;;;;;;;5057733;28;20142;-65
2022/03/31 05:33:12;;;;;;;12.55;11.35;;;;;;;;;;5052444;28;20048;-64
2022/03/31 05:35:38;;;;;;;17.77;16.08;;;;;;;;;;5055771;28;20041;-64
2022/03/31 05:38:04;;;;;;;16.05;14.55;;;;;;;;;;5055851;28;20040;-64
2022/03/31 05:40:30;;;;;;;10.30;9.32;;;;;;;;;;5061309;28;20663;-64
2022/03/31 05:42:56;;;;;;;14.90;13.55;;;;;;;;;;5056962;28;20037;-63
2022/03/31 05:45:22;;;;;;;8.30;7.53;;;;;;;;;;5045900;28;20394;-65
2022/03/31 05:47:48;;;;;;;13.18;11.93;;;;;;;;;;5051307;28;20052;-64
2022/03/31 05:50:15;;;;;;;11.77;10.77;;;;;;;;;;5054232;28;20931;-64
2022/03/31 05:52:44;;;;;;;13.98;12.77;;;;;;;;;;5059586;28;20097;-64
2022/03/31 05:55:12;;;;;;;5.20;4.75;;;;;;;;;;5056318;28;20036;-64
2022/03/31 05:57:38;;;;;;;9.60;8.70;;;;;;;;;;5036560;28;20403;-64
2022/03/31 06:00:05;;;;;;;13.15;11.95;;;;;;;;;;5042718;28;20033;-65
2022/03/31 06:02:31;;;;;;;14.48;13.18;;;;;;;;;;5050533;28;20059;-65
2022/03/31 06:04:58;;;;;;;9.52;8.65;;;;;;;;;;5052991;28;20040;-64
2022/03/31 06:07:24;;;;;;;15.63;14.13;;;;;;;;;;5077881;28;20074;-64
2022/03/31 06:09:50;;;;;;;6.93;5.70;;;;;;;;;;5080190;28;20049;-64
2022/03/31 06:12:16;;;;;;;16.05;14.52;;;;;;;;;;5062206;28;20087;-64
2022/03/31 06:14:42;;;;;;;14.02;12.60;;;;;;;;;;5046296;28;20124;-65
2022/03/31 06:17:08;;;;;;;3.42;3.15;;;;;;;;;;5061152;28;20059;-63
2022/03/31 06:19:35;;;;;;;7.38;6.65;;;;;;;;;;5076758;28;20423;-63
2022/03/31 06:22:01;;;;;;;16.30;14.73;;;;;;;;;;5058943;28;20091;-63
2022/03/31 06:24:27;;;;;;;10.27;9.27;;;;;;;;;;5051237;28;20091;-64
2022/03/31 06:26:56;;;;;;;12.60;11.40;;;;;;;;;;5060787;28;20045;-64
2022/03/31 06:29:22;;;;;;;13.90;12.50;;;;;;;;;;5059565;28;20645;-63
2022/03/31 06:31:49;;;;;;;16.00;14.43;;;;;;;;;;5047358;28;20490;-63
2022/03/31 06:34:15;;;;;;;12.13;10.93;;;;;;;;;;5063282;28;20041;-62
2022/03/31 06:36:41;;;;;;;14.98;13.57;;;;;;;;;;5056526;28;20122;-63
2022/03/31 06:39:07;;;;;;;12.38;11.02;;;;;;;;;;5062456;28;20717;-62
2022/03/31 06:41:33;;;;;;;15.63;14.02;;;;;;;;;;5064040;28;20044;-63
2022/03/31 06:43:59;;;;;;;11.43;10.00;;;;;;;;;;5066214;28;20116;-63
2022/03/31 06:46:26;;;;;;;16.98;15.27;;;;;;;;;;5042202;28;20036;-63
2022/03/31 06:48:52;;;;;;;14.15;12.63;;;;;;;;;;5049826;28;20444;-63
2022/03/31 06:51:18;;;;;;;19.77;17.67;;;;;;;;;;5063099;28;20117;-62
2022/03/31 06:53:44;;;;;;;4.40;3.95;;;;;;;;;;5067284;28;20041;-63
2022/03/31 06:56:13;;;;;;;16.00;14.40;;;;;;;;;;5064628;28;20060;-63
2022/03/31 06:58:39;;;;;;;12.02;10.77;;;;;;;;;;5079391;28;20037;-63
2022/03/31 07:01:06;;;;;;;8.10;7.20;;;;;;;;;;5077410;28;20041;-63
2022/03/31 07:03:32;;;;;;;10.52;9.43;;;;;;;;;;5049459;28;20045;-64
2022/03/31 07:05:58;;;;;;;18.63;16.73;;;;;;;;;;5066941;28;20047;-62
2022/03/31 07:08:24;;;;;;;11.80;10.55;;;;;;;;;;5058896;28;20080;-62
2022/03/31 07:10:50;;;;;;;6.30;5.72;;;;;;;;;;5057052;28;20375;-63
2022/03/31 07:13:16;;;;;;;9.45;7.97;;;;;;;;;;5061836;28;20044;-63
2022/03/31 07:15:43;;;;;;;12.50;11.20;;;;;;;;;;5063268;28;20422;-64
2022/03/31 07:18:09;;;;;;;9.30;8.45;;;;;;;;;;5053589;28;20051;-62
2022/03/31 07:20:36;;;;;;;12.32;10.93;;;;;;;;;;5049198;28;20185;-61
2022/03/31 07:23:02;;;;;;;20.02;16.33;;;;;;;;;;5049024;28;20399;-62
2022/03/31 07:25:28;;;;;;;18.52;16.05;;;;;;;;;;5058144;28;20051;-62
2022/03/31 07:27:55;;;;;;;20.25;16.45;;;;;;;;;;5068435;28;20102;-62
2022/03/31 07:30:22;;;;;;;18.70;16.73;;;;;;;;;;5056526;28;20042;-62
2022/03/31 07:32:51;;;;;;;10.15;8.70;;;;;;;;;;5064944;28;20250;-65
2022/03/31 07:35:17;;;;;;;12.05;10.77;;;;;;;;;;5057749;28;20041;-62
2022/03/31 07:37:44;;;;;;;14.27;12.85;;;;;;;;;;5062882;28;20036;-63
2022/03/31 07:40:10;;;;;;;16.50;13.85;;;;;;;;;;5067858;28;20523;-63
2022/03/31 07:42:36;;;;;;;13.90;12.20;;;;;;;;;;5043323;28;20039;-62
2022/03/31 07:45:03;;;;;;;8.55;5.43;;;;;;;;;;5063715;28;20169;-63
2022/03/31 07:47:29;;;;;;;10.23;8.85;;;;;;;;;;5061160;28;20384;-63
2022/03/31 07:49:56;;;;;;;13.90;10.57;;;;;;;;;;5063167;28;20094;-63
2022/03/31 07:52:22;;;;;;;7.57;6.43;;;;;;;;;;5060210;28;20115;-63
2022/03/31 07:54:49;;;;;;;13.35;8.98;;;;;;;;;;5051311;28;20041;-63
2022/03/31 07:57:16;;;;;;;11.25;9.43;;;;;;;;;;5074775;28;20037;-63
2022/03/31 07:59:42;;;;;;;11.35;8.98;;;;;;;;;;5059734;28;20076;-63
2022/03/31 08:02:08;;;;;;;11.55;10.07;;;;;;;;;;5063387;28;20449;-62
2022/03/31 08:04:35;;;;;;;12.90;11.07;;;;;;;;;;5058224;28;20037;-62
2022/03/31 08:07:01;;;;;;;17.50;14.18;;;;;;;;;;5049976;28;20403;-62
2022/03/31 08:09:27;;;;;;;16.35;13.35;;;;;;;;;;5067569;28;20044;-63
2022/03/31 08:11:53;;;;;;;14.05;11.43;;;;;;;;;;5061790;28;20494;-63
2022/03/31 08:14:20;;;;;;;14.02;12.13;;;;;;;;;;5056484;28;20075;-63
2022/03/31 08:16:48;;;;;;;12.18;10.23;;;;;;;;;;5073472;28;20067;-62
2022/03/31 08:19:15;;;;;;;17.27;14.77;;;;;;;;;;5082603;28;20446;-64
2022/03/31 08:21:42;;;;;;;10.73;9.07;;;;;;;;;;5061554;28;20040;-63
2022/03/31 08:24:09;;;;;;;6.30;5.00;;;;;;;;;;5063696;28;20090;-62
2022/03/31 08:26:35;;;;;;;12.65;11.13;;;;;;;;;;5043873;28;20047;-62
2022/03/31 08:29:01;;;;;;;8.75;7.85;;;;;;;;;;5061833;28;20158;-64
2022/03/31 08:31:27;;;;;;;8.88;7.97;;;;;;;;;;5049226;28;20037;-64
2022/03/31 08:33:54;;;;;;;4.93;4.25;;;;;;;;;;5064764;28;20032;-63
2022/03/31 08:36:20;;;;;;;8.38;6.80;;;;;;;;;;5059634;28;20029;-64
2022/03/31 08:38:46;;;;;;;10.10;8.77;;;;;;;;;;5068561;28;20044;-63
2022/03/31 08:41:14;;;;;;;11.75;10.55;;;;;;;;;;5070366;28;20072;-64
2022/03/31 08:43:42;;;;;;;7.22;6.32;;;;;;;;;;5064098;28;20040;-63
2022/03/31 08:46:09;;;;;;;3.22;2.90;;;;;;;;;;5053574;28;20040;-63
2022/03/31 08:48:36;;;;;;;9.90;8.90;;;;;;;;;;5077397;28;20056;-63
2022/03/31 08:51:02;;;;;;;4.10;3.75;;;;;;;;;;5066165;28;20049;-63
2022/03/31 08:53:28;;;;;;;11.15;9.65;;;;;;;;;;5051924;28;20463;-63
2022/03/31 08:55:54;;;;;;;7.18;6.47;;;;;;;;;;5079403;28;20048;-64
2022/03/31 08:58:20;;;;;;;10.73;9.55;;;;;;;;;;5057121;28;20033;-65
2022/03/31 09:00:46;;;;;;;4.22;3.83;;;;;;;;;;5037383;28;20036;-63
2022/03/31 09:03:12;;;;;;;3.65;3.35;;;;;;;;;;5076998;28;20467;-62
2022/03/31 09:05:45;;;;;;;2.17;1.98;;;;;;;;;;5059277;28;20080;-62
2022/03/31 09:08:12;;;;;;;5.20;4.53;;;;;;;;;;5059910;28;20045;-63
2022/03/31 09:10:44;;;;;;;8.32;7.20;;;;;;;;;;5066064;28;20044;-62
2022/03/31 09:13:40;;;;;;;3.95;3.25;;;;;;;;;;5074668;28;20478;-62
2022/03/31 09:16:11;;;;;;;5.43;4.88;;;;;;;;;;5064362;28;20094;-63
2022/03/31 09:18:37;;;;;;;4.45;3.13;;;;;;;;;;5061550;28;20029;-62
2022/03/31 09:21:05;;;;;;;5.90;5.32;;;;;;;;;;5041286;28;20123;-62
2022/03/31 09:23:33;;;;;;;4.45;3.55;;;;;;;;;;5060933;28;20502;-63
2022/03/31 09:26:04;;;;;;;9.05;7.57;;;;;;;;;;5055667;28;20040;-63
2022/03/31 09:28:31;;;;;;;6.28;5.68;;;;;;;;;;5050049;28;20049;-63
2022/03/31 09:30:57;;;;;;;9.32;8.43;;;;;;;;;;5057190;28;20096;-63
2022/03/31 09:33:27;;;;;;;5.00;3.65;;;;;;;;;;5060216;28;20482;-63
2022/03/31 09:35:57;;;;;;;8.82;7.53;;;;;;;;;;5055539;28;20047;-62
2022/03/31 09:38:23;;;;;;;6.22;5.60;;;;;;;;;;5046701;28;20059;-64
2022/03/31 09:40:49;;;;;;;8.30;7.30;;;;;;;;;;5063611;28;20041;-62
2022/03/31 09:43:17;;;;;;;4.55;3.80;;;;;;;;;;5049130;28;20043;-63
2022/03/31 09:45:43;;;;;;;4.63;3.10;;;;;;;;;;5056831;28;20094;-63
2022/03/31 09:48:20;;;;;;;4.32;3.70;;;;;;;;;;5068175;28;20053;-64
2022/03/31 09:50:47;;;;;;;6.10;5.45;;;;;;;;;;5069276;28;20470;-63
2022/03/31 09:53:13;;;;;;;4.53;3.65;;;;;;;;;;5073063;28;20044;-63
2022/03/31 09:55:40;;;;;;;3.38;3.05;;;;;;;;;;5069272;28;20041;-63
2022/03/31 09:58:09;;;;;;;5.85;5.32;;;;;;;;;;5074724;28;20039;-63
2022/03/31 10:00:35;;;;;;;5.55;4.38;;;;;;;;;;5077107;28;20036;-62
2022/03/31 10:03:02;;;;;;;4.70;4.30;;;;;;;;;;5058896;28;20090;-62
2022/03/31 10:05:28;;;;;;;6.20;5.53;;;;;;;;;;5036803;28;20045;-61
2022/03/31 10:07:57;;;;;;;6.80;5.85;;;;;;;;;;5061401;28;20041;-61
2022/03/31 10:10:24;;;;;;;3.42;3.13;;;;;;;;;;5064243;28;20040;-63
2022/03/31 10:13:26;;;;;;;3.53;3.22;;;;;;;;;;5068631;28;20503;-61
2022/03/31 10:16:13;;;;;;;3.53;2.90;;;;;;;;;;5042144;28;20083;-62
2022/03/31 10:18:44;;;;;;;3.33;1.92;;;;;;;;;;5046199;28;20108;-62
2022/03/31 10:21:11;;;;;;;5.43;4.47;;;;;;;;;;5077278;28;20075;-62
2022/03/31 10:26:25;;;;;;;4.78;4.10;;;;;;;;;;5051651;28;20066;-62
2022/03/31 10:28:59;;;;;;;2.92;2.60;;;;;;;;;;5066057;28;20467;-61
2022/03/31 10:31:25;;;;;;;;;;;;;;;;;;5057638;28;20056;-62
2022/03/31 10:33:54;;;;;;;6.70;4.90;;;;;;;;;;5056110;28;19916;-62
2022/03/31 10:36:22;;;;;;;3.08;2.13;;;;;;;;;;5057079;28;20045;-62
2022/03/31 10:38:56;;;;;;;8.95;3.35;;;;;;;;;;5045919;28;20044;-62
2022/03/31 10:41:30;;;;;;;6.10;4.45;;;;;;;;;;5061327;28;20050;-62
2022/03/31 10:43:58;;;;;;;6.25;5.35;;;;;;;;;;5058158;28;20044;-63
2022/03/31 10:46:25;;;;;;;7.65;4.97;;;;;;;;;;5048292;28;20101;-62
2022/03/31 10:48:53;;;;;;;3.92;3.25;;;;;;;;;;5050087;28;20110;-63
2022/03/31 10:51:30;;;;;;;8.07;6.35;;;;;;;;;;5062452;28;20045;-62
2022/03/31 10:53:56;;;;;;;10.73;9.00;;;;;;;;;;5063227;28;20029;-63
2022/03/31 10:56:26;;;;;;;3.80;3.38;;;;;;;;;;5057796;28;20033;-63
2022/03/31 10:58:54;;;;;;;8.10;6.55;;;;;;;;;;5055932;28;20037;-64
2022/03/31 11:01:20;;;;;;;4.72;3.92;;;;;;;;;;5061313;28;20072;-63
2022/03/31 11:03:48;;;;;;;9.85;7.22;;;;;;;;;;5057163;28;20041;-63
2022/03/31 11:06:14;;;;;;;3.40;2.67;;;;;;;;;;5057738;28;20045;-63
2022/03/31 11:08:44;;;;;;;8.02;5.88;;;;;;;;;;5057027;28;20098;-64
2022/03/31 11:11:19;;;;;;;9.85;6.97;;;;;;;;;;5056828;28;20045;-63
2022/03/31 11:13:45;;;;;;;6.97;6.28;;;;;;;;;;5067824;28;20037;-62
2022/03/31 11:16:14;;;;;;;11.32;8.98;;;;;;;;;;5048367;28;20033;-64
2022/03/31 11:18:40;;;;;;;12.55;8.75;;;;;;;;;;5061538;28;20047;-64
2022/03/31 11:21:06;;;;;;;11.52;8.88;;;;;;;;;;5077921;28;20040;-64
2022/03/31 11:23:33;;;;;;;7.72;6.07;;;;;;;;;;5057726;28;20033;-65
2022/03/31 11:25:59;;;;;;;9.02;5.97;;;;;;;;;;5055281;28;20421;-64
2022/03/31 11:28:28;;;;;;;5.10;3.83;;;;;;;;;;5038267;28;20040;-64
2022/03/31 11:30:55;;;;;;;8.60;6.82;;;;;;;;;;5057845;28;20083;-64
2022/03/31 11:33:22;;;;;;;4.55;3.88;;;;;;;;;;5038248;28;20040;-64
2022/03/31 11:35:51;;;;;;;8.07;6.97;;;;;;;;;;5054871;28;20052;-63
2022/03/31 11:38:19;;;;;;;7.28;3.78;;;;;;;;;;5054750;28;20040;-64
2022/03/31 11:40:48;;;;;;;8.30;7.53;;;;;;;;;;5053479;28;20359;-63
2022/03/31 11:43:18;;;;;;;12.45;10.10;;;;;;;;;;5040190;28;20390;-64
2022/03/31 11:45:48;;;;;;;7.53;5.07;;;;;;;;;;5059346;28;20040;-65
2022/03/31 11:48:18;;;;;;;6.97;6.28;;;;;;;;;;5055951;28;20049;-64
2022/03/31 11:50:57;;;;;;;12.65;11.35;;;;;;;;;;5058141;28;20049;-63
2022/03/31 11:53:28;;;;;;;11.48;9.20;;;;;;;;;;5061720;28;20048;-64
2022/03/31 11:56:01;;;;;;;14.40;12.90;;;;;;;;;;5059252;28;20142;-64
2022/03/31 11:58:27;;;;;;;;;;;;;;;;;;5059792;28;20583;-64
2022/03/31 12:00:54;;;;;;;20.65;17.30;;;;;;;;;;5055436;28;19955;-62
2022/03/31 12:03:20;;;;;;;9.23;8.27;;;;;;;;;;5044162;28;20080;-62
2022/03/31 12:05:59;;;;;;;9.25;6.82;;;;;;;;;;5060839;28;20135;-62
2022/03/31 12:08:29;;;;;;;9.15;7.45;;;;;;;;;;5052607;28;20467;-63
2022/03/31 12:10:56;;;;;;;7.35;4.70;;;;;;;;;;5061734;28;20048;-64
2022/03/31 12:13:23;;;;;;;13.05;10.07;;;;;;;;;;5056628;28;20116;-63
2022/03/31 12:15:49;;;;;;;13.05;11.00;;;;;;;;;;5058900;28;20036;-62
2022/03/31 12:18:18;;;;;;;11.57;10.30;;;;;;;;;;5065581;28;20064;-64
2022/03/31 12:20:49;;;;;;;12.52;10.85;;;;;;;;;;5056359;28;20033;-62
2022/03/31 12:23:26;;;;;;;7.55;6.65;;;;;;;;;;5040441;28;20067;-64
2022/03/31 12:25:53;;;;;;;23.40;18.83;;;;;;;;;;5057668;28;20048;-63
2022/03/31 12:28:23;;;;;;;8.43;7.05;;;;;;;;;;5056593;28;20625;-62
2022/03/31 12:30:50;;;;;;;23.85;17.88;;;;;;;;;;5056416;28;20040;-65
2022/03/31 12:33:30;;;;;;;17.95;14.80;;;;;;;;;;5048546;28;20053;-65
2022/03/31 12:36:06;;;;;;;33.58;27.55;;;;;;;;;;5060756;28;20045;-63
2022/03/31 12:38:46;;;;;;;33.05;24.88;;;;;;;;;;5056779;28;20041;-64
2022/03/31 12:41:15;;;;;;;28.42;22.35;;;;;;;;;;5054235;28;20079;-63
2022/03/31 12:43:42;;;;;;;27.13;23.05;;;;;;;;;;5056983;28;20043;-64
2022/03/31 12:46:17;;;;;;;28.55;22.50;;;;;;;;;;5060821;28;20127;-64
2022/03/31 12:48:53;;;;;;;19.75;17.00;;;;;;;;;;5055003;28;20438;-65
2022/03/31 12:51:20;;;;;;;23.50;19.65;;;;;;;;;;5038656;28;20102;-62
2022/03/31 12:53:46;;;;;;;26.67;20.23;;;;;;;;;;5058589;28;20256;-62
2022/03/31 12:56:21;;;;;;;13.63;10.48;;;;;;;;;;5060307;28;20127;-64
2022/03/31 12:58:47;;;;;;;27.40;22.33;;;;;;;;;;5057738;28;20047;-64
2022/03/31 13:01:13;;;;;;;25.20;21.30;;;;;;;;;;5037111;28;20098;-63
2022/03/31 13:03:39;;;;;;;26.60;21.85;;;;;;;;;;5061758;28;20522;-62
2022/03/31 13:06:05;;;;;;;20.75;16.67;;;;;;;;;;5056055;28;20056;-64
2022/03/31 13:08:31;;;;;;;25.30;21.25;;;;;;;;;;5055799;28;20086;-63
2022/03/31 13:10:58;;;;;;;30.77;24.35;;;;;;;;;;5060217;28;20152;-63
2022/03/31 13:13:25;;;;;;;16.63;14.40;;;;;;;;;;5066739;28;20048;-64
2022/03/31 13:15:51;;;;;;;22.42;16.30;;;;;;;;;;5063008;28;20509;-63
2022/03/31 13:18:17;;;;;;;23.52;14.38;;;;;;;;;;5052763;28;20427;-63
2022/03/31 13:20:43;;;;;;;28.00;18.15;;;;;;;;;;5055223;28;20068;-63
2022/03/31 13:23:09;;;;;;;7.22;5.18;;;;;;;;;;5053213;28;20074;-61
2022/03/31 13:25:36;;;;;;;19.25;14.43;;;;;;;;;;5058025;28;20068;-63
2022/03/31 13:28:02;;;;;;;16.38;9.68;;;;;;;;;;5024541;28;20037;-62
2022/03/31 13:30:28;;;;;;;9.70;7.45;;;;;;;;;;5063169;28;20398;-62
2022/03/31 13:32:54;;;;;;;9.35;7.72;;;;;;;;;;5059876;28;20075;-62
2022/03/31 13:35:20;;;;;;;11.50;7.75;;;;;;;;;;5054475;28;20082;-63
2022/03/31 13:37:48;;;;;;;17.30;13.23;;;;;;;;;;5056187;28;20068;-62
2022/03/31 13:40:14;;;;;;;15.18;9.70;;;;;;;;;;5059269;28;20071;-62
2022/03/31 13:42:41;;;;;;;16.95;11.30;;;;;;;;;;5054458;28;20080;-62
2022/03/31 13:45:13;;;;;;;15.93;12.98;;;;;;;;;;5061875;28;20036;-62
2022/03/31 13:47:42;;;;;;;18.98;13.48;;;;;;;;;;5062194;28;20088;-61
2022/03/31 13:50:09;;;;;;;10.05;8.43;;;;;;;;;;5066614;28;20044;-61
2022/03/31 13:52:35;;;;;;;8.30;6.00;;;;;;;;;;5054180;28;20155;-62
2022/03/31 13:55:01;;;;;;;6.85;3.67;;;;;;;;;;5072846;28;20037;-63
2022/03/31 14:03:04;;;;;;;12.15;7.47;;;;;;;;;;5063501;28;20521;-63
2022/03/31 14:05:30;;;;;;;4.10;3.13;;;;;;;;;;5060663;28;20044;-63
2022/03/31 14:07:56;;;;;;;6.43;4.93;;;;;;;;;;5055352;28;20041;-64
2022/03/31 14:10:23;;;;;;;18.52;10.80;;;;;;;;;;5050666;28;20090;-63
2022/03/31 14:12:49;;;;;;;8.38;5.97;;;;;;;;;;5067516;28;20563;-63
2022/03/31 14:15:16;;;;;;;10.57;6.88;;;;;;;;;;5066439;28;20089;-62
2022/03/31 14:17:42;;;;;;;11.50;6.68;;;;;;;;;;5057085;28;20364;-63
2022/03/31 14:20:08;;;;;;;11.13;6.80;;;;;;;;;;5055308;28;20036;-63
2022/03/31 14:22:34;;;;;;;9.00;7.05;;;;;;;;;;5057120;28;20410;-62
2022/03/31 14:25:03;;;;;;;5.50;3.58;;;;;;;;;;5074512;28;20079;-64
2022/03/31 14:27:29;;;;;;;7.97;5.38;;;;;;;;;;5060499;28;20037;-63
2022/03/31 14:29:56;;;;;;;15.05;9.57;;;;;;;;;;5049246;28;20044;-62
2022/03/31 14:32:22;;;;;;;5.75;4.25;;;;;;;;;;5064052;28;20151;-63
2022/03/31 14:34:48;;;;;;;6.47;4.03;;;;;;;;;;5059621;28;20036;-62
2022/03/31 14:37:14;;;;;;;12.70;8.27;;;;;;;;;;5056600;28;20040;-62
2022/03/31 14:39:41;;;;;;;7.63;4.70;;;;;;;;;;5057519;28;20041;-63
2022/03/31 14:42:07;;;;;;;5.93;3.08;;;;;;;;;;5041694;28;20068;-63
2022/03/31 14:44:33;;;;;;;7.20;3.38;;;;;;;;;;5027544;28;20483;-63
2022/03/31 14:47:00;;;;;;;7.82;4.80;;;;;;;;;;5056088;28;20049;-64